CheckWX is a tool to help pilots better visualize weather data.  It is not intended as a substitute for an official pre-flight weather briefing.

20:57:20 UTC

KSGR METAR
Sugar Land Regional Airport
Houston, Texas, USA
Current

1 hour ago

KSGR 181953Z 05012KT 10SM OVC080 19/02 A3011 RMK AO2 SLP196 T01940022
Observed
Feb-18 @ 19:53 UTC
Wind
  • 050° at 12 KTS
Visibility
10 SM
Flight Rules
VFR
Cloud Levels
  • Overcast at 8,000' AGL
Temperature
19°C / 66°F
Dewpoint
C / 36°F
Humidity
32%
Altimeter
30.11" Hg
Pressure
1019.6 hPa
Previous

2 hours ago

KSGR 181853Z 05011KT 10SM BKN080 18/02 A3013 RMK AO2 SLP205 T01780017
Observed
Feb-18 @ 18:53 UTC
Wind
  • 050° at 11 KTS
Visibility
10 SM
Flight Rules
VFR
Cloud Levels
  • Broken at 8,000' AGL
Temperature
18°C / 64°F
Dewpoint
C / 36°F
Humidity
34%
Altimeter
30.13" Hg
Pressure
1020.5 hPa
Previous

3 hours ago

KSGR 181753Z 08013KT 10SM CLR 16/01 A3015 RMK AO2 SLP212 T01610006 10167 20094 58004
Observed
Feb-18 @ 17:53 UTC
Wind
  • 080° at 13 KTS
Visibility
10 SM
Flight Rules
VFR
Cloud Levels
  • Clear skies
Temperature
16°C / 61°F
Dewpoint
C / 34°F
Humidity
36%
Altimeter
30.15" Hg
Pressure
1021.2 hPa